sensor_id;sensor_type;location;lat;lon;timestamp;temperature;humidity
23122;DHT22;11730;51.248;22.534;2023-05-16T00:05:41;11.60;99.90
23122;DHT22;11730;51.248;22.534;2023-05-16T00:08:08;12.10;99.90
23122;DHT22;11730;51.248;22.534;2023-05-16T00:22:54;12.00;99.90
23122;DHT22;11730;51.248;22.534;2023-05-16T00:25:21;11.90;99.90
23122;DHT22;11730;51.248;22.534;2023-05-16T00:32:43;11.90;99.90
23122;DHT22;11730;51.248;22.534;2023-05-16T00:40:06;11.20;99.90
23122;DHT22;11730;51.248;22.534;2023-05-16T00:47:27;11.50;99.90
23122;DHT22;11730;51.248;22.534;2023-05-16T00:49:55;11.80;99.90
23122;DHT22;11730;51.248;22.534;2023-05-16T00:52:22;11.90;99.90
23122;DHT22;11730;51.248;22.534;2023-05-16T00:54:50;11.80;99.90
23122;DHT22;11730;51.248;22.534;2023-05-16T00:57:18;11.60;99.90
23122;DHT22;11730;51.248;22.534;2023-05-16T00:59:46;11.60;99.90
23122;DHT22;11730;51.248;22.534;2023-05-16T01:04:42;11.40;99.90
23122;DHT22;11730;51.248;22.534;2023-05-16T01:12:34;11.50;99.90
23122;DHT22;11730;51.248;22.534;2023-05-16T01:15:31;11.40;99.90
23122;DHT22;11730;51.248;22.534;2023-05-16T01:18:07;11.20;99.90
23122;DHT22;11730;51.248;22.534;2023-05-16T01:23:26;10.90;99.90
23122;DHT22;11730;51.248;22.534;2023-05-16T01:28:40;11.20;99.90
23122;DHT22;11730;51.248;22.534;2023-05-16T01:31:08;11.10;99.90
23122;DHT22;11730;51.248;22.534;2023-05-16T01:36:19;10.90;99.90
23122;DHT22;11730;51.248;22.534;2023-05-16T01:39:09;11.00;99.90
23122;DHT22;11730;51.248;22.534;2023-05-16T01:44:32;10.60;99.90
23122;DHT22;11730;51.248;22.534;2023-05-16T01:47:04;11.20;99.90
23122;DHT22;11730;51.248;22.534;2023-05-16T01:49:50;11.30;99.90
23122;DHT22;11730;51.248;22.534;2023-05-16T01:52:27;10.90;99.90
23122;DHT22;11730;51.248;22.534;2023-05-16T01:54:58;11.00;99.90
23122;DHT22;11730;51.248;22.534;2023-05-16T01:57:27;11.10;99.90
23122;DHT22;11730;51.248;22.534;2023-05-16T01:59:56;11.20;99.90
23122;DHT22;11730;51.248;22.534;2023-05-16T02:09:45;11.10;99.90
23122;DHT22;11730;51.248;22.534;2023-05-16T02:12:12;10.80;99.90
23122;DHT22;11730;51.248;22.534;2023-05-16T02:14:39;10.50;99.90
23122;DHT22;11730;51.248;22.534;2023-05-16T02:17:06;10.60;99.90
23122;DHT22;11730;51.248;22.534;2023-05-16T02:24:27;10.80;99.90
23122;DHT22;11730;51.248;22.534;2023-05-16T02:29:21;10.60;99.90
23122;DHT22;11730;51.248;22.534;2023-05-16T02:41:38;10.50;99.90
23122;DHT22;11730;51.248;22.534;2023-05-16T02:46:33;10.30;99.90
23122;DHT22;11730;51.248;22.534;2023-05-16T03:06:15;10.20;99.90
23122;DHT22;11730;51.248;22.534;2023-05-16T03:11:09;10.30;99.90
23122;DHT22;11730;51.248;22.534;2023-05-16T03:16:05;9.90;99.90
23122;DHT22;11730;51.248;22.534;2023-05-16T03:23:28;10.30;99.90
23122;DHT22;11730;51.248;22.534;2023-05-16T03:28:23;10.10;99.90
23122;DHT22;11730;51.248;22.534;2023-05-16T03:38:12;10.30;99.90
23122;DHT22;11730;51.248;22.534;2023-05-16T03:40:40;10.80;99.90
23122;DHT22;11730;51.248;22.534;2023-05-16T03:43:07;10.40;99.90
23122;DHT22;11730;51.248;22.534;2023-05-16T03:45:34;10.30;99.90
23122;DHT22;11730;51.248;22.534;2023-05-16T03:50:28;10.30;99.90
23122;DHT22;11730;51.248;22.534;2023-05-16T03:55:22;10.40;99.90
23122;DHT22;11730;51.248;22.534;2023-05-16T04:02:45;10.40;99.90
23122;DHT22;11730;51.248;22.534;2023-05-16T04:12:35;10.70;99.90
23122;DHT22;11730;51.248;22.534;2023-05-16T04:15:05;10.80;99.90
23122;DHT22;11730;51.248;22.534;2023-05-16T04:17:33;10.90;99.90
23122;DHT22;11730;51.248;22.534;2023-05-16T04:20:00;10.80;99.90
23122;DHT22;11730;51.248;22.534;2023-05-16T04:37:14;11.20;99.90
23122;DHT22;11730;51.248;22.534;2023-05-16T04:42:08;11.20;99.90
23122;DHT22;11730;51.248;22.534;2023-05-16T04:44:35;11.40;99.90
23122;DHT22;11730;51.248;22.534;2023-05-16T04:54:24;11.50;99.90
23122;DHT22;11730;51.248;22.534;2023-05-16T04:59:19;11.40;99.90
23122;DHT22;11730;51.248;22.534;2023-05-16T05:01:47;11.70;99.90
23122;DHT22;11730;51.248;22.534;2023-05-16T05:06:43;11.60;99.90
23122;DHT22;11730;51.248;22.534;2023-05-16T05:11:37;12.10;99.90
23122;DHT22;11730;51.248;22.534;2023-05-16T05:18:58;12.10;99.90
23122;DHT22;11730;51.248;22.534;2023-05-16T05:23:53;12.20;99.90
23122;DHT22;11730;51.248;22.534;2023-05-16T05:26:20;12.10;99.90
23122;DHT22;11730;51.248;22.534;2023-05-16T05:33:59;12.50;99.90
23122;DHT22;11730;51.248;22.534;2023-05-16T05:36:26;12.40;99.90
23122;DHT22;11730;51.248;22.534;2023-05-16T05:53:40;13.00;99.90
23122;DHT22;11730;51.248;22.534;2023-05-16T06:08:24;13.40;99.90
23122;DHT22;11730;51.248;22.534;2023-05-16T06:13:19;13.70;99.90
23122;DHT22;11730;51.248;22.534;2023-05-16T06:15:51;13.90;99.90
23122;DHT22;11730;51.248;22.534;2023-05-16T06:23:13;14.20;99.90
23122;DHT22;11730;51.248;22.534;2023-05-16T06:25:40;14.30;99.90
23122;DHT22;11730;51.248;22.534;2023-05-16T06:30:34;14.20;99.90
23122;DHT22;11730;51.248;22.534;2023-05-16T06:35:28;14.40;99.90
23122;DHT22;11730;51.248;22.534;2023-05-16T06:40:23;14.40;99.90
23122;DHT22;11730;51.248;22.534;2023-05-16T06:42:50;14.50;99.90
23122;DHT22;11730;51.248;22.534;2023-05-16T06:47:44;15.00;99.90
23122;DHT22;11730;51.248;22.534;2023-05-16T06:55:08;15.30;98.50
23122;DHT22;11730;51.248;22.534;2023-05-16T07:00:02;15.40;99.90
23122;DHT22;11730;51.248;22.534;2023-05-16T07:02:30;15.50;97.80
23122;DHT22;11730;51.248;22.534;2023-05-16T07:09:51;15.80;96.10
23122;DHT22;11730;51.248;22.534;2023-05-16T07:14:46;16.00;97.10
23122;DHT22;11730;51.248;22.534;2023-05-16T07:19:41;16.30;94.80
23122;DHT22;11730;51.248;22.534;2023-05-16T07:22:08;16.60;95.40
23122;DHT22;11730;51.248;22.534;2023-05-16T07:27:02;17.40;94.00
23122;DHT22;11730;51.248;22.534;2023-05-16T07:44:14;17.90;85.90
23122;DHT22;11730;51.248;22.534;2023-05-16T07:49:10;17.90;84.10
23122;DHT22;11730;51.248;22.534;2023-05-16T07:59:00;19.40;75.10
23122;DHT22;11730;51.248;22.534;2023-05-16T08:01:27;18.60;75.30
23122;DHT22;11730;51.248;22.534;2023-05-16T08:06:24;18.10;73.20
23122;DHT22;11730;51.248;22.534;2023-05-16T08:08:51;18.90;72.10
23122;DHT22;11730;51.248;22.534;2023-05-16T08:18:41;19.10;66.90
23122;DHT22;11730;51.248;22.534;2023-05-16T08:23:35;19.30;71.50
23122;DHT22;11730;51.248;22.534;2023-05-16T08:28:29;19.80;69.50
23122;DHT22;11730;51.248;22.534;2023-05-16T08:40:46;20.20;65.20
23122;DHT22;11730;51.248;22.534;2023-05-16T08:48:09;20.00;60.80
23122;DHT22;11730;51.248;22.534;2023-05-16T08:53:07;18.90;68.30
23122;DHT22;11730;51.248;22.534;2023-05-16T08:58:03;20.10;59.50
23122;DHT22;11730;51.248;22.534;2023-05-16T09:02:58;20.30;59.00
23122;DHT22;11730;51.248;22.534;2023-05-16T09:05:28;22.00;59.70
23122;DHT22;11730;51.248;22.534;2023-05-16T09:10:23;20.70;63.70
23122;DHT22;11730;51.248;22.534;2023-05-16T09:15:19;20.00;56.90
23122;DHT22;11730;51.248;22.534;2023-05-16T09:20:19;19.60;58.10
23122;DHT22;11730;51.248;22.534;2023-05-16T09:22:55;19.80;61.00
23122;DHT22;11730;51.248;22.534;2023-05-16T09:25:25;19.80;61.70
23122;DHT22;11730;51.248;22.534;2023-05-16T09:27:59;20.00;60.10
23122;DHT22;11730;51.248;22.534;2023-05-16T09:30:32;20.50;58.70
23122;DHT22;11730;51.248;22.534;2023-05-16T09:33:00;20.60;59.30
23122;DHT22;11730;51.248;22.534;2023-05-16T09:43:04;20.50;58.20
23122;DHT22;11730;51.248;22.534;2023-05-16T09:45:32;20.70;59.80
23122;DHT22;11730;51.248;22.534;2023-05-16T09:48:08;20.90;58.00
23122;DHT22;11730;51.248;22.534;2023-05-16T09:50:36;21.30;57.60
23122;DHT22;11730;51.248;22.534;2023-05-16T09:55:31;21.60;56.40
23122;DHT22;11730;51.248;22.534;2023-05-16T09:57:58;21.50;57.90
23122;DHT22;11730;51.248;22.534;2023-05-16T10:00:29;21.40;52.90
23122;DHT22;11730;51.248;22.534;2023-05-16T10:05:30;21.30;56.30
23122;DHT22;11730;51.248;22.534;2023-05-16T10:10:25;22.20;49.90
23122;DHT22;11730;51.248;22.534;2023-05-16T10:12:56;22.00;50.00
23122;DHT22;11730;51.248;22.534;2023-05-16T10:17:55;23.00;49.00
23122;DHT22;11730;51.248;22.534;2023-05-16T10:20:24;22.60;48.40
23122;DHT22;11730;51.248;22.534;2023-05-16T10:22:54;22.70;46.10
23122;DHT22;11730;51.248;22.534;2023-05-16T10:25:38;21.90;49.20
23122;DHT22;11730;51.248;22.534;2023-05-16T10:28:07;22.60;48.50
23122;DHT22;11730;51.248;22.534;2023-05-16T10:30:35;23.10;46.50
23122;DHT22;11730;51.248;22.534;2023-05-16T10:33:03;24.10;47.80
23122;DHT22;11730;51.248;22.534;2023-05-16T10:35:31;22.50;50.50
23122;DHT22;11730;51.248;22.534;2023-05-16T10:37:59;22.70;47.70
23122;DHT22;11730;51.248;22.534;2023-05-16T10:40:27;21.80;50.60
23122;DHT22;11730;51.248;22.534;2023-05-16T10:43:02;22.60;47.80
23122;DHT22;11730;51.248;22.534;2023-05-16T10:45:30;23.40;48.50
23122;DHT22;11730;51.248;22.534;2023-05-16T10:48:03;23.80;44.70
23122;DHT22;11730;51.248;22.534;2023-05-16T10:50:42;24.00;41.30
23122;DHT22;11730;51.248;22.534;2023-05-16T10:53:20;22.90;45.30
23122;DHT22;11730;51.248;22.534;2023-05-16T11:06:34;23.50;40.40
23122;DHT22;11730;51.248;22.534;2023-05-16T11:14:04;23.30;44.90
23122;DHT22;11730;51.248;22.534;2023-05-16T11:16:33;23.40;40.40
23122;DHT22;11730;51.248;22.534;2023-05-16T11:19:04;24.10;40.20
23122;DHT22;11730;51.248;22.534;2023-05-16T11:24:38;24.30;36.10
23122;DHT22;11730;51.248;22.534;2023-05-16T11:29:34;23.80;38.80
23122;DHT22;11730;51.248;22.534;2023-05-16T11:32:03;23.80;40.10
23122;DHT22;11730;51.248;22.534;2023-05-16T11:34:31;23.90;37.50
23122;DHT22;11730;51.248;22.534;2023-05-16T11:39:31;24.90;35.60
23122;DHT22;11730;51.248;22.534;2023-05-16T11:41:58;25.20;37.70
23122;DHT22;11730;51.248;22.534;2023-05-16T11:44:25;24.80;36.20
23122;DHT22;11730;51.248;22.534;2023-05-16T11:49:19;23.80;39.90
23122;DHT22;11730;51.248;22.534;2023-05-16T11:54:15;24.50;39.50
23122;DHT22;11730;51.248;22.534;2023-05-16T11:59:09;23.40;36.40
23122;DHT22;11730;51.248;22.534;2023-05-16T12:04:12;24.30;39.60
23122;DHT22;11730;51.248;22.534;2023-05-16T12:06:41;23.50;42.00
23122;DHT22;11730;51.248;22.534;2023-05-16T12:09:14;22.80;38.80
23122;DHT22;11730;51.248;22.534;2023-05-16T12:14:12;22.80;39.30
23122;DHT22;11730;51.248;22.534;2023-05-16T12:16:39;23.40;42.20
23122;DHT22;11730;51.248;22.534;2023-05-16T12:19:12;23.50;42.10
23122;DHT22;11730;51.248;22.534;2023-05-16T12:21:39;23.50;42.40
23122;DHT22;11730;51.248;22.534;2023-05-16T12:24:10;23.30;38.60
23122;DHT22;11730;51.248;22.534;2023-05-16T12:26:39;23.50;41.70
23122;DHT22;11730;51.248;22.534;2023-05-16T12:29:09;23.50;38.10
23122;DHT22;11730;51.248;22.534;2023-05-16T12:31:40;23.00;40.70
23122;DHT22;11730;51.248;22.534;2023-05-16T12:34:17;22.90;39.50
23122;DHT22;11730;51.248;22.534;2023-05-16T12:36:44;23.40;43.90
23122;DHT22;11730;51.248;22.534;2023-05-16T12:47:11;22.40;40.60
23122;DHT22;11730;51.248;22.534;2023-05-16T12:49:45;22.30;43.80
23122;DHT22;11730;51.248;22.534;2023-05-16T12:52:17;22.00;44.80
23122;DHT22;11730;51.248;22.534;2023-05-16T12:54:49;22.10;44.00
23122;DHT22;11730;51.248;22.534;2023-05-16T13:02:10;23.20;42.40
23122;DHT22;11730;51.248;22.534;2023-05-16T13:09:32;23.80;40.00
23122;DHT22;11730;51.248;22.534;2023-05-16T13:11:59;23.90;39.30
23122;DHT22;11730;51.248;22.534;2023-05-16T13:14:26;24.00;37.40
23122;DHT22;11730;51.248;22.534;2023-05-16T13:16:53;23.90;40.00
23122;DHT22;11730;51.248;22.534;2023-05-16T13:19:20;23.50;41.50
23122;DHT22;11730;51.248;22.534;2023-05-16T13:24:17;23.00;42.00
23122;DHT22;11730;51.248;22.534;2023-05-16T13:26:44;23.00;42.30
23122;DHT22;11730;51.248;22.534;2023-05-16T13:36:35;23.00;43.80
23122;DHT22;11730;51.248;22.534;2023-05-16T13:41:46;22.30;45.40
23122;DHT22;11730;51.248;22.534;2023-05-16T13:46:42;22.60;44.30
23122;DHT22;11730;51.248;22.534;2023-05-16T13:54:04;22.00;43.20
23122;DHT22;11730;51.248;22.534;2023-05-16T14:01:31;21.90;43.20
23122;DHT22;11730;51.248;22.534;2023-05-16T14:03:58;22.20;44.90
23122;DHT22;11730;51.248;22.534;2023-05-16T14:11:20;21.70;46.40
23122;DHT22;11730;51.248;22.534;2023-05-16T14:18:50;22.30;41.30
23122;DHT22;11730;51.248;22.534;2023-05-16T14:23:45;22.10;45.30
23122;DHT22;11730;51.248;22.534;2023-05-16T14:26:13;22.00;45.40
23122;DHT22;11730;51.248;22.534;2023-05-16T14:28:40;21.80;46.00
23122;DHT22;11730;51.248;22.534;2023-05-16T14:36:02;21.70;44.10
23122;DHT22;11730;51.248;22.534;2023-05-16T14:38:33;21.30;47.20
23122;DHT22;11730;51.248;22.534;2023-05-16T14:50:49;21.40;47.40
23122;DHT22;11730;51.248;22.534;2023-05-16T14:55:44;21.10;47.00
23122;DHT22;11730;51.248;22.534;2023-05-16T14:58:11;21.00;47.50
23122;DHT22;11730;51.248;22.534;2023-05-16T15:12:56;21.10;46.90
23122;DHT22;11730;51.248;22.534;2023-05-16T15:22:48;20.70;47.30
23122;DHT22;11730;51.248;22.534;2023-05-16T15:32:38;21.10;46.80
23122;DHT22;11730;51.248;22.534;2023-05-16T15:37:32;21.00;44.50
23122;DHT22;11730;51.248;22.534;2023-05-16T15:47:24;20.60;46.40
23122;DHT22;11730;51.248;22.534;2023-05-16T15:49:51;19.80;45.90
23122;DHT22;11730;51.248;22.534;2023-05-16T15:59:43;20.50;45.70
23122;DHT22;11730;51.248;22.534;2023-05-16T16:02:10;20.20;43.70
23122;DHT22;11730;51.248;22.534;2023-05-16T16:11:59;20.10;45.50
23122;DHT22;11730;51.248;22.534;2023-05-16T16:16:53;19.90;46.40
23122;DHT22;11730;51.248;22.534;2023-05-16T16:21:48;20.60;47.10
23122;DHT22;11730;51.248;22.534;2023-05-16T16:24:15;19.90;47.70
23122;DHT22;11730;51.248;22.534;2023-05-16T16:34:06;20.00;48.20
23122;DHT22;11730;51.248;22.534;2023-05-16T16:46:23;19.50;50.00
23122;DHT22;11730;51.248;22.534;2023-05-16T17:03:34;19.30;52.30
23122;DHT22;11730;51.248;22.534;2023-05-16T17:08:29;19.00;54.60
23122;DHT22;11730;51.248;22.534;2023-05-16T17:13:25;18.10;59.80
23122;DHT22;11730;51.248;22.534;2023-05-16T17:16:00;18.20;57.90
23122;DHT22;11730;51.248;22.534;2023-05-16T17:23:21;18.70;61.90
23122;DHT22;11730;51.248;22.534;2023-05-16T17:28:15;18.60;62.20
23122;DHT22;11730;51.248;22.534;2023-05-16T17:40:35;18.50;69.80
23122;DHT22;11730;51.248;22.534;2023-05-16T17:45:30;18.40;69.20
23122;DHT22;11730;51.248;22.534;2023-05-16T17:50:24;18.00;71.70
23122;DHT22;11730;51.248;22.534;2023-05-16T17:52:51;18.40;69.30
23122;DHT22;11730;51.248;22.534;2023-05-16T18:00:14;18.00;70.50
23122;DHT22;11730;51.248;22.534;2023-05-16T18:02:41;18.10;71.70
23122;DHT22;11730;51.248;22.534;2023-05-16T18:05:08;18.00;71.80
23122;DHT22;11730;51.248;22.534;2023-05-16T18:10:03;17.80;75.80
23122;DHT22;11730;51.248;22.534;2023-05-16T18:17:25;17.80;76.70
23122;DHT22;11730;51.248;22.534;2023-05-16T18:41:59;17.70;84.50
23122;DHT22;11730;51.248;22.534;2023-05-16T18:49:23;17.10;82.30
23122;DHT22;11730;51.248;22.534;2023-05-16T18:54:20;16.90;84.10
23122;DHT22;11730;51.248;22.534;2023-05-16T18:56:49;17.00;83.40
23122;DHT22;11730;51.248;22.534;2023-05-16T19:01:44;16.60;80.50
23122;DHT22;11730;51.248;22.534;2023-05-16T19:09:06;16.70;85.20
23122;DHT22;11730;51.248;22.534;2023-05-16T19:11:35;16.60;88.20
23122;DHT22;11730;51.248;22.534;2023-05-16T19:14:02;16.50;86.20
23122;DHT22;11730;51.248;22.534;2023-05-16T19:18:56;16.60;86.90
23122;DHT22;11730;51.248;22.534;2023-05-16T19:26:19;16.50;86.90
23122;DHT22;11730;51.248;22.534;2023-05-16T19:31:14;16.50;88.00
23122;DHT22;11730;51.248;22.534;2023-05-16T19:33:41;16.80;88.50
23122;DHT22;11730;51.248;22.534;2023-05-16T19:41:02;16.50;90.20
23122;DHT22;11730;51.248;22.534;2023-05-16T19:50:52;16.50;90.00
23122;DHT22;11730;51.248;22.534;2023-05-16T19:58:15;16.60;90.70
23122;DHT22;11730;51.248;22.534;2023-05-16T20:03:09;16.30;88.00
23122;DHT22;11730;51.248;22.534;2023-05-16T20:15:28;16.30;92.20
23122;DHT22;11730;51.248;22.534;2023-05-16T20:20:23;16.10;91.20
23122;DHT22;11730;51.248;22.534;2023-05-16T20:22:49;17.10;90.40
23122;DHT22;11730;51.248;22.534;2023-05-16T20:32:39;16.20;91.10
23122;DHT22;11730;51.248;22.534;2023-05-16T20:37:36;15.90;91.90
23122;DHT22;11730;51.248;22.534;2023-05-16T20:44:59;15.70;92.20
23122;DHT22;11730;51.248;22.534;2023-05-16T20:49:54;16.00;90.80
23122;DHT22;11730;51.248;22.534;2023-05-16T20:52:21;15.90;92.30
23122;DHT22;11730;51.248;22.534;2023-05-16T20:57:16;15.80;91.60
23122;DHT22;11730;51.248;22.534;2023-05-16T21:07:05;16.00;93.30
23122;DHT22;11730;51.248;22.534;2023-05-16T21:26:47;16.00;94.60
23122;DHT22;11730;51.248;22.534;2023-05-16T21:29:14;15.50;94.50
23122;DHT22;11730;51.248;22.534;2023-05-16T21:34:10;15.80;91.60
23122;DHT22;11730;51.248;22.534;2023-05-16T21:41:32;15.70;93.30
23122;DHT22;11730;51.248;22.534;2023-05-16T21:46:26;16.00;95.40
23122;DHT22;11730;51.248;22.534;2023-05-16T22:08:33;15.40;99.90
23122;DHT22;11730;51.248;22.534;2023-05-16T22:18:31;14.70;99.90
23122;DHT22;11730;51.248;22.534;2023-05-16T22:23:26;15.10;99.90
23122;DHT22;11730;51.248;22.534;2023-05-16T22:33:15;14.90;99.90
23122;DHT22;11730;51.248;22.534;2023-05-16T22:43:06;15.00;99.90
23122;DHT22;11730;51.248;22.534;2023-05-16T22:57:50;14.30;99.90
23122;DHT22;11730;51.248;22.534;2023-05-16T23:12:38;14.70;99.90
23122;DHT22;11730;51.248;22.534;2023-05-16T23:15:06;14.60;99.90
23122;DHT22;11730;51.248;22.534;2023-05-16T23:20:05;14.20;99.90
23122;DHT22;11730;51.248;22.534;2023-05-16T23:24:59;14.80;99.90
23122;DHT22;11730;51.248;22.534;2023-05-16T23:27:26;14.20;99.90
23122;DHT22;11730;51.248;22.534;2023-05-16T23:29:54;14.50;99.90
23122;DHT22;11730;51.248;22.534;2023-05-16T23:47:07;14.40;99.90
23122;DHT22;11730;51.248;22.534;2023-05-16T23:49:34;14.80;99.90
